createdAt,value
2019-05-15T00:00:42.483Z,100.00
2019-05-15T00:03:16.091Z,100.00
2019-05-15T00:05:49.515Z,100.00
2019-05-15T00:08:21.468Z,100.00
2019-05-15T00:10:55.938Z,100.00
2019-05-15T00:13:28.272Z,100.00
2019-05-15T00:16:00.458Z,100.00
2019-05-15T00:18:32.261Z,100.00
2019-05-15T00:21:03.925Z,100.00
2019-05-15T00:23:35.793Z,100.00
2019-05-15T00:26:09.303Z,100.00
2019-05-15T00:28:40.955Z,100.00
2019-05-15T00:31:12.768Z,100.00
2019-05-15T00:33:48.112Z,100.00
2019-05-15T00:36:19.408Z,100.00
2019-05-15T00:38:51.278Z,100.00
2019-05-15T00:41:23.059Z,100.00
2019-05-15T00:43:54.878Z,100.00
2019-05-15T00:46:28.902Z,100.00
2019-05-15T00:49:00.079Z,100.00
2019-05-15T00:51:31.727Z,100.00
2019-05-15T00:54:03.439Z,100.00
2019-05-15T00:56:34.975Z,100.00
2019-05-15T00:59:08.378Z,100.00
2019-05-15T01:01:39.951Z,100.00
2019-05-15T01:04:11.675Z,100.00
2019-05-15T01:06:43.271Z,100.00
2019-05-15T01:09:14.958Z,100.00
2019-05-15T01:11:48.618Z,100.00
2019-05-15T01:14:19.839Z,100.00
2019-05-15T01:16:51.503Z,100.00
2019-05-15T01:19:23.248Z,100.00
2019-05-15T01:21:54.860Z,100.00
2019-05-15T01:24:28.242Z,100.00
2019-05-15T01:26:59.751Z,100.00
2019-05-15T01:29:41.872Z,100.00
2019-05-15T01:32:04.833Z,100.00
2019-05-15T01:34:38.410Z,100.00
2019-05-15T01:37:09.851Z,100.00
2019-05-15T01:39:41.501Z,100.00
2019-05-15T01:42:13.122Z,100.00
2019-05-15T01:44:44.781Z,100.00
2019-05-15T01:47:18.772Z,100.00
2019-05-15T01:49:54.187Z,100.00
2019-05-15T01:52:27.816Z,100.00
2019-05-15T01:54:59.152Z,100.00
2019-05-15T01:57:30.908Z,100.00
2019-05-15T02:00:02.548Z,100.00
2019-05-15T02:02:34.378Z,100.00
2019-05-15T02:05:08.461Z,100.00
2019-05-15T02:07:40.419Z,100.00
2019-05-15T02:10:12.209Z,100.00
2019-05-15T02:12:43.869Z,100.00
2019-05-15T02:15:15.404Z,100.00
2019-05-15T02:17:48.132Z,100.00
2019-05-15T02:20:19.878Z,100.00
2019-05-15T02:22:51.595Z,100.00
2019-05-15T02:25:23.206Z,100.00
2019-05-15T02:27:54.905Z,100.00
2019-05-15T02:30:30.258Z,100.00
2019-05-15T02:33:00.993Z,100.00
2019-05-15T02:35:32.603Z,100.00
2019-05-15T02:38:04.286Z,100.00
2019-05-15T02:40:35.892Z,100.00
2019-05-15T02:43:10.024Z,100.00
2019-05-15T02:45:42.385Z,100.00
2019-05-15T02:48:14.503Z,100.00
2019-05-15T02:50:49.824Z,100.00
2019-05-15T02:53:19.493Z,99.97
2019-05-15T02:55:51.180Z,100.00
2019-05-15T02:58:22.987Z,100.00
2019-05-15T03:00:54.579Z,100.00
2019-05-15T03:03:29.152Z,99.89
2019-05-15T03:06:00.317Z,97.49
2019-05-15T03:08:32.257Z,96.33
2019-05-15T03:11:03.838Z,96.28
2019-05-15T03:13:35.498Z,91.66
2019-05-15T03:16:10.097Z,89.28
2019-05-15T03:18:42.056Z,86.74
2019-05-15T03:21:13.669Z,84.75
2019-05-15T03:23:45.392Z,82.53
2019-05-15T03:26:19.746Z,80.40
2019-05-15T03:28:51.604Z,78.00
2019-05-15T03:31:43.525Z,75.16
2019-05-15T03:34:02.030Z,73.29
2019-05-15T03:36:31.707Z,72.21
2019-05-15T03:39:05.111Z,69.40
2019-05-15T03:41:39.239Z,65.58
2019-05-15T03:44:11.566Z,64.53
2019-05-15T03:46:43.240Z,65.70
2019-05-15T03:49:15.006Z,65.98
2019-05-15T03:51:49.725Z,65.04
2019-05-15T03:54:20.104Z,63.34
2019-05-15T03:56:51.737Z,62.60
2019-05-15T03:59:23.657Z,62.04
2019-05-15T04:01:55.431Z,61.32
2019-05-15T04:04:29.731Z,62.16
2019-05-15T04:07:00.704Z,60.39
2019-05-15T04:09:34.327Z,58.19
2019-05-15T04:12:09.427Z,57.80
2019-05-15T04:14:42.111Z,55.44
2019-05-15T04:17:13.746Z,57.90
2019-05-15T04:19:45.426Z,55.72
2019-05-15T04:22:19.802Z,56.48
2019-05-15T04:24:53.923Z,56.33
2019-05-15T04:27:28.976Z,55.19
2019-05-15T04:30:01.363Z,53.24
2019-05-15T04:32:33.132Z,53.60
2019-05-15T04:35:09.211Z,53.18
2019-05-15T04:37:41.494Z,53.59
2019-05-15T04:40:13.403Z,52.24
2019-05-15T04:42:45.153Z,51.08
2019-05-15T04:45:19.430Z,50.54
2019-05-15T04:47:51.980Z,50.29
2019-05-15T04:50:23.663Z,49.97
2019-05-15T04:52:59.024Z,49.44
2019-05-15T04:55:29.319Z,49.75
2019-05-15T04:58:02.171Z,49.56
2019-05-15T05:00:53.916Z,49.44
2019-05-15T05:03:29.216Z,49.75
2019-05-15T05:05:59.973Z,47.69
2019-05-15T05:08:31.783Z,50.92
2019-05-15T05:11:03.577Z,47.34
2019-05-15T05:13:35.245Z,48.22
2019-05-15T05:16:09.605Z,47.54
2019-05-15T05:18:41.636Z,46.57
2019-05-15T05:21:13.953Z,50.05
2019-05-15T05:23:48.348Z,49.86
2019-05-15T05:26:20.272Z,46.47
2019-05-15T05:28:52.014Z,45.91
2019-05-15T05:31:23.749Z,46.25
2019-05-15T05:33:57.724Z,46.69
2019-05-15T05:36:29.024Z,46.56
2019-05-15T05:39:01.553Z,48.47
2019-05-15T05:41:33.403Z,45.57
2019-05-15T05:44:05.138Z,46.71
2019-05-15T05:46:36.872Z,47.17
2019-05-15T05:49:08.478Z,48.02
2019-05-15T05:51:40.293Z,49.08
2019-05-15T05:54:11.953Z,50.16
2019-05-15T05:56:43.635Z,51.43
2019-05-15T05:59:15.469Z,50.19
2019-05-15T06:01:48.521Z,48.11
2019-05-15T06:04:21.375Z,47.35
2019-05-15T06:07:06.048Z,48.86
2019-05-15T06:09:32.583Z,49.54
2019-05-15T06:12:04.325Z,47.82
2019-05-15T06:14:38.059Z,49.17
2019-05-15T06:17:10.171Z,47.40
2019-05-15T06:19:41.850Z,50.31
2019-05-15T06:22:14.846Z,46.64
2019-05-15T06:24:49.167Z,49.38
2019-05-15T06:27:21.511Z,49.70
2019-05-15T06:29:53.166Z,48.38
2019-05-15T06:32:24.958Z,45.37
2019-05-15T06:34:57.903Z,46.31
2019-05-15T06:37:29.698Z,45.69
2019-05-15T06:40:02.182Z,44.76
2019-05-15T06:42:33.857Z,44.13
2019-05-15T06:45:08.261Z,45.80
2019-05-15T06:47:40.145Z,42.45
2019-05-15T06:50:12.967Z,43.96
2019-05-15T06:52:44.649Z,41.10
2019-05-15T06:55:18.285Z,45.61
2019-05-15T06:57:49.808Z,42.12
2019-05-15T07:00:21.463Z,43.82
2019-05-15T07:02:53.281Z,41.82
2019-05-15T07:05:25.063Z,41.85
2019-05-15T07:07:58.528Z,40.94
2019-05-15T07:10:30.279Z,37.80
2019-05-15T07:13:03.280Z,39.58
2019-05-15T07:15:35.039Z,41.05
2019-05-15T07:18:08.744Z,40.30
2019-05-15T07:20:40.093Z,40.30
2019-05-15T07:23:11.763Z,37.88
2019-05-15T07:25:43.521Z,38.95
2019-05-15T07:28:18.119Z,39.40
2019-05-15T07:30:49.915Z,35.79
2019-05-15T07:33:35.913Z,35.31
2019-05-15T07:35:55.130Z,36.84
2019-05-15T07:38:28.212Z,35.95
2019-05-15T07:41:04.309Z,36.36
2019-05-15T07:43:33.625Z,38.52
2019-05-15T07:46:08.104Z,38.36
2019-05-15T07:48:38.689Z,35.51
2019-05-15T07:51:11.687Z,35.33
2019-05-15T07:53:43.492Z,36.31
2019-05-15T07:56:15.530Z,40.57
2019-05-15T07:58:52.474Z,42.15
2019-05-15T08:01:20.793Z,38.39
2019-05-15T08:04:09.312Z,35.67
2019-05-15T08:06:25.781Z,37.63
2019-05-15T08:08:59.259Z,35.69
2019-05-15T08:11:30.913Z,36.80
2019-05-15T08:14:03.766Z,34.98
2019-05-15T08:16:35.648Z,35.21
2019-05-15T08:19:08.563Z,35.95
2019-05-15T08:21:40.616Z,33.34
2019-05-15T08:24:12.304Z,35.63
2019-05-15T08:26:45.654Z,35.60
2019-05-15T08:29:21.150Z,34.92
2019-05-15T08:31:50.852Z,36.67
2019-05-15T08:34:22.500Z,34.71
2019-05-15T08:36:55.206Z,38.79
2019-05-15T08:39:28.486Z,37.33
2019-05-15T08:42:00.282Z,38.02
2019-05-15T08:44:34.755Z,39.86
2019-05-15T08:47:08.168Z,40.37
2019-05-15T08:49:41.030Z,41.83
2019-05-15T08:52:14.166Z,40.65
2019-05-15T08:54:48.441Z,39.39
2019-05-15T08:57:20.479Z,37.28
2019-05-15T08:59:52.320Z,36.82
2019-05-15T09:02:23.862Z,35.93
2019-05-15T09:04:57.903Z,38.65
2019-05-15T09:07:28.907Z,37.24
2019-05-15T09:10:00.585Z,36.30
2019-05-15T09:12:32.192Z,37.13
2019-05-15T09:15:05.045Z,34.60
2019-05-15T09:17:39.568Z,33.79
2019-05-15T09:20:10.406Z,34.55
2019-05-15T09:22:42.926Z,35.16
2019-05-15T09:25:14.693Z,35.26
2019-05-15T09:27:46.102Z,34.55
2019-05-15T09:30:18.277Z,31.14
2019-05-15T09:32:50.205Z,34.03
2019-05-15T09:35:22.903Z,33.80
2019-05-15T09:37:54.547Z,37.28
2019-05-15T09:40:41.855Z,33.23
2019-05-15T09:43:00.748Z,38.82
2019-05-15T09:45:32.338Z,37.80
2019-05-15T09:48:03.970Z,37.62
2019-05-15T09:50:35.579Z,35.19
2019-05-15T09:53:09.284Z,33.98
2019-05-15T09:55:42.945Z,37.06
2019-05-15T09:58:14.551Z,38.06
2019-05-15T10:00:50.875Z,36.65
2019-05-15T10:03:19.423Z,35.81
2019-05-15T10:05:51.278Z,37.99
2019-05-15T10:08:29.033Z,38.31
2019-05-15T10:10:59.480Z,38.39
2019-05-15T10:13:31.133Z,35.92
2019-05-15T10:16:08.208Z,36.80
2019-05-15T10:18:39.209Z,39.69
2019-05-15T10:21:11.154Z,39.62
2019-05-15T10:23:42.715Z,36.42
2019-05-15T10:26:14.665Z,38.45
2019-05-15T10:28:49.012Z,39.39
2019-05-15T10:31:19.868Z,39.55
2019-05-15T10:33:51.652Z,37.94
2019-05-15T10:36:23.236Z,39.22
2019-05-15T10:38:54.928Z,39.48
2019-05-15T10:41:28.166Z,40.22
2019-05-15T10:44:00.488Z,39.67
2019-05-15T10:46:32.684Z,40.58
2019-05-15T10:49:04.340Z,42.80
2019-05-15T10:51:35.996Z,42.65
2019-05-15T10:54:08.581Z,40.66
2019-05-15T10:56:40.673Z,41.31
2019-05-15T10:59:12.488Z,40.31
2019-05-15T11:01:44.081Z,40.75
2019-05-15T11:04:18.013Z,39.58
2019-05-15T11:06:49.269Z,38.91
2019-05-15T11:09:22.279Z,38.83
2019-05-15T11:11:53.921Z,37.14
2019-05-15T11:14:28.472Z,36.80
2019-05-15T11:16:59.238Z,38.17
2019-05-15T11:19:36.018Z,38.30
2019-05-15T11:22:04.474Z,38.02
2019-05-15T11:24:38.541Z,37.21
2019-05-15T11:27:11.141Z,36.91
2019-05-15T11:29:42.809Z,38.24
2019-05-15T11:32:14.600Z,37.43
2019-05-15T11:34:49.096Z,38.28
2019-05-15T11:37:19.610Z,38.62
2019-05-15T11:39:51.256Z,34.97
2019-05-15T11:42:22.911Z,36.28
2019-05-15T11:44:54.676Z,36.29
2019-05-15T11:47:27.862Z,35.69
2019-05-15T11:49:59.879Z,37.24
2019-05-15T11:52:31.625Z,37.00
2019-05-15T11:55:03.153Z,35.14
2019-05-15T11:57:42.569Z,36.25
2019-05-15T12:00:14.943Z,40.70
2019-05-15T12:02:42.368Z,42.56
2019-05-15T12:05:14.265Z,38.97
2019-05-15T12:07:47.820Z,37.74
2019-05-15T12:10:19.243Z,37.13
2019-05-15T12:12:50.910Z,37.06
2019-05-15T12:15:22.594Z,40.72
2019-05-15T12:17:54.226Z,37.94
2019-05-15T12:20:28.335Z,37.14
2019-05-15T12:22:59.574Z,38.26
2019-05-15T12:25:32.140Z,35.54
2019-05-15T12:28:03.837Z,37.23
2019-05-15T12:30:35.473Z,38.67
2019-05-15T12:33:09.320Z,37.00
2019-05-15T12:35:40.497Z,36.02
2019-05-15T12:38:12.090Z,36.31
2019-05-15T13:01:17.553Z,39.17
2019-05-15T13:03:43.597Z,39.48
2019-05-15T13:06:15.159Z,40.69
2019-05-15T13:08:48.882Z,39.79
2019-05-15T13:11:20.061Z,41.70
2019-05-15T13:13:51.612Z,41.84
2019-05-15T13:16:23.450Z,39.49
2019-05-15T13:18:58.823Z,40.22
2019-05-15T13:21:30.797Z,40.45
2019-05-15T13:24:02.467Z,41.84
2019-05-15T13:26:34.171Z,41.49
2019-05-15T13:29:05.908Z,40.83
2019-05-15T13:31:38.253Z,37.71
2019-05-15T13:34:10.530Z,38.46
2019-05-15T13:36:42.069Z,37.91
2019-05-15T13:39:13.813Z,37.94
2019-05-15T13:41:48.175Z,37.08
2019-05-15T13:44:19.097Z,36.17
2019-05-15T13:46:50.720Z,35.78
2019-05-15T13:49:22.452Z,36.65
2019-05-15T13:51:54.044Z,38.17
2019-05-15T13:54:25.714Z,36.57
2019-05-15T13:56:58.212Z,37.22
2019-05-15T13:59:30.257Z,38.17
2019-05-15T14:02:01.913Z,37.87
2019-05-15T14:04:33.670Z,39.23
2019-05-15T14:07:05.371Z,38.71
2019-05-15T14:09:43.524Z,37.50
2019-05-15T14:12:12.391Z,38.11
2019-05-15T14:14:43.981Z,36.66
2019-05-15T14:17:16.547Z,38.38
2019-05-15T14:19:48.787Z,39.42
2019-05-15T14:22:20.301Z,39.57
2019-05-15T14:24:54.274Z,39.63
2019-05-15T14:27:28.371Z,37.05
2019-05-15T14:29:59.242Z,36.45
2019-05-15T14:32:38.495Z,38.33
2019-05-15T14:35:04.537Z,39.12
2019-05-15T14:37:36.131Z,40.25
2019-05-15T14:40:09.307Z,41.38
2019-05-15T14:42:41.297Z,39.80
2019-05-15T14:45:15.991Z,40.12
2019-05-15T14:47:49.281Z,37.85
2019-05-15T14:50:23.438Z,39.59
2019-05-15T14:52:55.159Z,40.81
2019-05-15T14:55:32.291Z,41.21
2019-05-15T14:58:00.250Z,41.34
2019-05-15T15:00:34.635Z,41.67
2019-05-15T15:03:05.483Z,43.04
2019-05-15T15:05:38.776Z,40.68
2019-05-15T15:08:24.125Z,42.07
2019-05-15T15:10:43.917Z,43.01
2019-05-15T15:13:15.571Z,43.12
2019-05-15T15:15:48.474Z,43.56
2019-05-15T15:18:21.913Z,43.22
2019-05-15T15:20:53.552Z,43.46
2019-05-15T15:23:25.156Z,44.28
2019-05-15T15:25:57.827Z,44.04
2019-05-15T15:28:29.940Z,44.39
2019-05-15T15:31:02.006Z,45.59
2019-05-15T15:33:33.653Z,43.99
2019-05-15T15:36:05.291Z,44.68
2019-05-15T15:38:43.177Z,43.87
2019-05-15T15:41:10.202Z,44.79
2019-05-15T15:43:41.946Z,44.69
2019-05-15T15:46:13.611Z,43.80
2019-05-15T15:48:48.373Z,45.35
2019-05-15T15:51:22.648Z,45.35
2019-05-15T15:53:56.509Z,45.97
2019-05-15T15:56:29.032Z,46.16
2019-05-15T15:59:01.111Z,45.85
2019-05-15T16:01:32.791Z,46.61
2019-05-15T16:04:08.345Z,46.94
2019-05-15T16:06:39.384Z,47.18
2019-05-15T16:09:11.018Z,47.99
2019-05-15T16:11:43.995Z,48.03
2019-05-15T16:14:17.708Z,48.47
2019-05-15T16:16:48.974Z,48.61
2019-05-15T16:19:20.578Z,48.80
2019-05-15T16:21:52.225Z,49.67
2019-05-15T16:24:23.838Z,49.91
2019-05-15T16:26:55.499Z,50.29
2019-05-15T16:29:29.987Z,50.26
2019-05-15T16:32:01.772Z,50.36
2019-05-15T16:34:39.111Z,51.11
2019-05-15T16:37:11.184Z,51.38
2019-05-15T16:39:42.842Z,51.36
2019-05-15T16:42:14.532Z,51.40
2019-05-15T16:44:48.941Z,51.78
2019-05-15T16:47:20.928Z,51.96
2019-05-15T16:49:52.599Z,51.96
2019-05-15T16:52:24.369Z,52.90
2019-05-15T16:54:58.113Z,53.39
2019-05-15T16:57:30.563Z,53.39
2019-05-15T17:00:10.027Z,53.62
2019-05-15T17:02:42.445Z,53.62
2019-05-15T17:05:14.947Z,54.11
2019-05-15T17:07:48.839Z,54.53
2019-05-15T17:10:20.442Z,54.83
2019-05-15T17:12:52.330Z,54.27
2019-05-15T17:15:23.946Z,54.27
2019-05-15T17:17:58.089Z,54.87
2019-05-15T17:20:29.082Z,55.06
2019-05-15T17:23:00.702Z,55.73
2019-05-15T17:25:34.949Z,57.04
2019-05-15T17:28:08.924Z,57.60
2019-05-15T17:30:40.949Z,58.25
2019-05-15T17:33:12.905Z,59.57
2019-05-15T17:35:44.558Z,59.88
2019-05-15T17:38:18.277Z,60.15
2019-05-15T17:40:50.265Z,60.23
2019-05-15T17:43:22.185Z,60.81
2019-05-15T17:45:53.867Z,61.53
2019-05-15T17:48:25.527Z,62.37
2019-05-15T17:50:59.080Z,62.67
2019-05-15T17:53:31.543Z,62.33
2019-05-15T17:56:07.044Z,62.53
2019-05-15T17:58:41.923Z,62.24
2019-05-15T18:01:14.213Z,62.76
2019-05-15T18:03:48.531Z,63.28
2019-05-15T18:06:21.111Z,63.52
2019-05-15T18:08:54.543Z,63.75
2019-05-15T18:11:28.206Z,64.29
2019-05-15T18:13:59.889Z,63.72
2019-05-15T18:16:31.469Z,63.41
2019-05-15T18:19:08.326Z,62.06
2019-05-15T18:21:41.631Z,61.55
2019-05-15T18:24:14.867Z,62.26
2019-05-15T18:26:49.025Z,63.13
2019-05-15T18:29:29.210Z,64.15
2019-05-15T18:32:05.059Z,65.16
2019-05-15T18:34:39.576Z,65.91
2019-05-15T18:37:20.511Z,66.74
2019-05-15T18:40:02.346Z,67.46
2019-05-15T18:42:29.446Z,67.81
2019-05-15T18:45:01.207Z,67.84
2019-05-15T18:47:34.936Z,68.15
2019-05-15T18:50:13.147Z,68.43
2019-05-15T18:52:45.809Z,68.51
2019-05-15T18:55:39.533Z,68.89
2019-05-15T18:58:11.470Z,69.35
2019-05-15T19:00:44.971Z,69.94
2019-05-15T19:03:22.209Z,70.42
2019-05-15T19:05:51.632Z,70.44
2019-05-15T19:08:23.403Z,70.43
2019-05-15T19:10:55.625Z,70.39
2019-05-15T19:13:28.304Z,71.48
2019-05-15T19:16:01.444Z,71.99
2019-05-15T19:18:33.200Z,71.49
2019-05-15T19:21:05.139Z,71.24
2019-05-15T19:23:38.164Z,71.06
2019-05-15T19:26:12.578Z,71.46
2019-05-15T19:28:44.249Z,71.73
2019-05-15T19:31:26.047Z,72.10
2019-05-15T19:33:50.212Z,72.27
2019-05-15T19:36:23.196Z,72.04
2019-05-15T19:38:54.819Z,72.07
2019-05-15T19:41:28.873Z,71.46
2019-05-15T19:44:03.222Z,71.90
2019-05-15T19:46:38.626Z,72.02
2019-05-15T19:49:10.892Z,72.80
2019-05-15T19:51:48.520Z,72.20
2019-05-15T19:54:21.606Z,72.32
2019-05-15T19:56:53.546Z,73.34
2019-05-15T19:59:25.225Z,72.21
2019-05-15T20:01:57.840Z,72.15
2019-05-15T20:04:31.260Z,72.54
2019-05-15T20:07:04.168Z,72.70
2019-05-15T20:09:39.109Z,72.86
2019-05-15T20:12:10.922Z,73.63
2019-05-15T20:14:42.746Z,73.96
2019-05-15T20:17:18.193Z,74.68
2019-05-15T20:19:49.558Z,74.94
2019-05-15T20:22:21.372Z,75.31
2019-05-15T20:24:53.124Z,75.48
2019-05-15T20:27:24.912Z,75.75
2019-05-15T20:29:56.757Z,75.81
2019-05-15T20:32:28.433Z,76.15
2019-05-15T20:35:00.150Z,75.74
2019-05-15T20:37:31.919Z,74.40
2019-05-15T20:40:05.068Z,74.93
2019-05-15T20:42:37.989Z,74.90
2019-05-15T20:45:12.269Z,73.22
2019-05-15T20:47:43.703Z,73.54
2019-05-15T20:50:15.286Z,73.51
2019-05-15T20:52:48.875Z,74.71
2019-05-15T20:55:20.304Z,75.42
2019-05-15T20:57:51.957Z,76.36
2019-05-15T21:00:26.027Z,76.95
2019-05-15T21:02:58.408Z,78.46
2019-05-15T21:05:29.958Z,80.02
2019-05-15T21:08:01.899Z,80.98
2019-05-15T21:10:33.498Z,81.99
2019-05-15T21:13:05.298Z,82.62
2019-05-15T21:15:37.248Z,83.02
2019-05-15T21:18:14.479Z,83.05
2019-05-15T21:20:42.360Z,83.06
2019-05-15T21:23:14.136Z,83.07
2019-05-15T21:25:48.294Z,83.20
2019-05-15T21:28:19.365Z,83.22
2019-05-15T21:30:51.102Z,83.43
2019-05-15T21:33:22.734Z,83.87
2019-05-15T21:35:55.262Z,85.23
2019-05-15T21:38:28.379Z,85.91
2019-05-15T21:41:00.184Z,86.50
2019-05-15T21:43:31.988Z,86.80
2019-05-15T21:46:03.747Z,86.91
2019-05-15T21:48:38.095Z,87.47
2019-05-15T21:51:11.852Z,88.36
2019-05-15T21:53:42.284Z,84.39
2019-05-15T21:56:13.876Z,84.49
2019-05-15T21:58:45.562Z,82.62
2019-05-15T22:01:19.681Z,78.40
2019-05-15T22:03:50.950Z,76.46
2019-05-15T22:06:22.605Z,74.90
2019-05-15T22:08:54.303Z,74.76
2019-05-15T22:11:29.566Z,74.17
2019-05-15T22:14:00.119Z,74.55
2019-05-15T22:16:31.749Z,74.64
2019-05-15T22:19:03.322Z,75.26
2019-05-15T22:21:34.958Z,74.79
2019-05-15T22:24:08.788Z,74.08
2019-05-15T22:26:40.064Z,73.62
2019-05-15T22:29:11.982Z,75.44
2019-05-15T22:31:43.615Z,77.45
2019-05-15T22:34:15.280Z,79.44
2019-05-15T22:36:50.598Z,81.95
2019-05-15T22:39:20.237Z,77.52
2019-05-15T22:41:51.835Z,74.52
2019-05-15T22:44:23.547Z,72.56
2019-05-15T22:46:55.180Z,71.69
2019-05-15T22:49:28.716Z,71.09
2019-05-15T22:52:00.181Z,71.84
2019-05-15T22:54:31.961Z,72.07
2019-05-15T22:57:03.859Z,72.08
2019-05-15T22:59:35.613Z,72.04
2019-05-15T23:02:09.187Z,75.46
2019-05-15T23:04:40.551Z,78.81
2019-05-15T23:07:12.692Z,79.62
2019-05-15T23:09:46.345Z,80.46
2019-05-15T23:12:19.672Z,81.25
2019-05-15T23:14:51.498Z,81.49
2019-05-15T23:17:23.093Z,82.96
2019-05-15T23:19:54.833Z,85.38
2019-05-15T23:22:27.914Z,85.88
2019-05-15T23:24:59.889Z,86.38
2019-05-15T23:27:31.534Z,84.43
2019-05-15T23:30:03.602Z,82.93
2019-05-15T23:32:35.346Z,80.81
2019-05-15T23:35:07.248Z,79.86
2019-05-15T23:37:39.412Z,78.14
2019-05-15T23:40:11.602Z,76.61
2019-05-15T23:42:43.313Z,76.35
2019-05-15T23:45:14.965Z,76.68
2019-05-15T23:47:48.604Z,77.00
2019-05-15T23:50:19.945Z,77.57
2019-05-15T23:52:51.524Z,78.03
2019-05-15T23:55:23.240Z,78.03
2019-05-15T23:57:54.911Z,77.57
